URMM

Mineralnye Vody Airport

Airport
ICAO code
URMM
IATA Code
MRV
Summary
ICAO Region
EUR
ICAO Territory
Location

Stavropol Krai, North Caucasus

Serving
Mineralnye Vody
Elevation
1053 ft
Coordinates
44° 13' 30" N , 43° 4' 55" E
KCC
Metar
Observation
URMM 032030Z 07003MPS 9999 SCT023 M00/M02 Q1015 R12/090070 NOSIG RMK QFE733/0978
Station
Mineral'Nye Vody
Date/Time
2023-02-03 21:30:00
Wind direction
70°
Lowest cloud amount
scattered clouds
Temperature
-0°C
Dew point
-2°C
Humidity
86%
QNH
1015 hPa
Weather condition
n/a

Mineralnye Vody Airport is an airport in Stavropol Krai, Russia

Climatology

Humid Continental climate (Köppen climate classification Dfa)

Runways

Designator Length Width Surface Rops
12/30 3900 60 CON Yes/Yes

Airport map

Aerial View

SKYbrary Partners:

Safety knowledge contributed by: